Carnival Valor — H3VR — position and weather

sailwx.info

Track history (hours):
 
Tides and Currents Weather Stations Pressure Air Temp Water Temp Dewpoint Dewpoint Depression Visibility Wind Speed Wind Dir Waves Ship Positions

Carnival Valor

Last reported at 2019-Aug-24 20:28 UTC. Time now 2019-Aug-24 20:44 UTC.
Position N 20°29' W 086°59'.

Type: Ship. MMSI: 354298000.

Date/timePositionNaut miles runAvg speedWind from/ knotsBaromVisibWave heightAir tempDewpointWater temp
2019-Aug-24 20:28N 20°29' W 086°59'0 0.0
2019-Aug-24 19:55N 20°29' W 086°59'0 0.0
2019-Aug-24 19:28N 20°29' W 086°59'0 0.0
2019-Aug-24 18:58N 20°29' W 086°59'0 0.0
2019-Aug-24 18:30N 20°29' W 086°59'0 0.0
2019-Aug-24 18:00N 20°29' W 086°59'0 0.0
2019-Aug-24 17:30N 20°29' W 086°59'0 0.0
2019-Aug-24 17:00N 20°29' W 086°59'0 0.0
2019-Aug-24 16:29N 20°29' W 086°59'0 0.0
2019-Aug-24 15:59N 20°29' W 086°59'0 0.0
2019-Aug-24 15:29N 20°29' W 086°59'0 0.0
2019-Aug-24 14:59N 20°29' W 086°59'0 0.0
2019-Aug-24 14:29N 20°29' W 086°59'0 0.0
2019-Aug-24 13:58N 20°29' W 086°59'0 0.0
2019-Aug-24 13:28N 20°29' W 086°59'0 0.0
2019-Aug-24 12:58N 20°29' W 086°59'0 0.0
2019-Aug-24 12:28N 20°29' W 086°59'0 0.0
2019-Aug-24 12:01N 20°29' W 086°59'0 0.2
2019-Aug-24 11:30N 20°29' W 086°59'2 4.8
2019-Aug-24 11:00N 20°31' W 087°00'510.2
2019-Aug-24 10:30N 20°36' W 086°58'612.0
2019-Aug-24 10:00N 20°41' W 086°55'5213.0
2019-Aug-24 06:00N 21°30' W 086°36'27817.4 100 / 51014.210.8 28.023.730.0
2019-Aug-23 14:00N 25°54' W 088°12'23916.2 150 / 71015.910.8 29.0 31.0
2019-Aug-22 23:12N 29°36' W 089°52'311.3
2019-Aug-22 22:58N 29°37' W 089°55'510.6
2019-Aug-22 22:27N 29°42' W 089°58'612.8
2019-Aug-22 22:00N 29°47' W 090°01'713.3
2019-Aug-22 21:31N 29°53' W 089°58'3 6.1
2019-Aug-22 20:59N 29°55' W 089°56'611.9
2019-Aug-22 20:30N 29°57' W 090°02'2 3.1
2019-Aug-22 19:53N 29°56' W 090°04'0 0.0
2019-Aug-22 19:29N 29°56' W 090°04'0 0.0
2019-Aug-22 18:59N 29°56' W 090°04'0 0.0
2019-Aug-22 18:25N 29°56' W 090°04'0 0.0
2019-Aug-22 17:58N 29°56' W 090°04'0 0.0
2019-Aug-22 17:25N 29°56' W 090°04'0 0.0
2019-Aug-22 16:58N 29°56' W 090°04'0 0.0
2019-Aug-22 16:28N 29°56' W 090°04'0 0.0
2019-Aug-22 16:00N 29°56' W 090°04'0 0.0
2019-Aug-22 15:30N 29°56' W 090°04'0 0.0
2019-Aug-22 14:57N 29°56' W 090°04'0 0.0
2019-Aug-22 14:27N 29°56' W 090°04'0 0.0
2019-Aug-22 13:59N 29°56' W 090°04'0 0.0
2019-Aug-22 13:29N 29°56' W 090°04'0 0.0
2019-Aug-22 12:56N 29°56' W 090°04'0 0.0
2019-Aug-22 12:29N 29°56' W 090°04'0 0.0
2019-Aug-22 11:59N 29°56' W 090°04'0 0.0
2019-Aug-22 11:28N 29°56' W 090°04'0 0.0
2019-Aug-22 10:58N 29°56' W 090°04'0 0.0
2019-Aug-22 10:28N 29°56' W 090°04'0 0.0
2019-Aug-22 09:55N 29°56' W 090°04'1 2.8
2019-Aug-22 09:30N 29°57' W 090°03'5 9.9
2019-Aug-22 09:00N 29°55' W 089°58'4 8.9
2019-Aug-22 08:30N 29°52' W 089°55'5 9.5
2019-Aug-22 08:00N 29°50' W 089°59'611.4
2019-Aug-22 07:30N 29°44' W 090°01'713.2
2019-Aug-22 07:00N 29°39' W 089°57'711.8
2019-Aug-22 06:26N 29°36' W 089°50'22414.5
2019-Aug-21 15:00N 25°54' W 089°18'5418.0 110 / 151016.610.8 30.0 31.0
2019-Aug-21 12:00N 25°00' W 089°18'9018.0 140 / 151015.410.8 29.023.229.0
2019-Aug-21 07:00N 23°30' W 089°12'9515.4 130 / 181014.710.8 28.025.231.0
2019-Aug-21 00:50N 21°56' W 089°28'615.7
2019-Aug-21 00:25N 21°50' W 089°31'715.8
2019-Aug-21 00:00N 21°44' W 089°34'816.0
2019-Aug-20 23:30N 21°37' W 089°37'816.1
2019-Aug-20 23:01N 21°30' W 089°41'611.9
2019-Aug-20 22:30N 21°24' W 089°41'3 6.0
2019-Aug-20 21:58N 21°21' W 089°41'0 0.0
2019-Aug-20 21:28N 21°21' W 089°41'0 0.0
2019-Aug-20 20:58N 21°21' W 089°41'0 0.0
2019-Aug-20 20:19N 21°21' W 089°41'0 0.0
2019-Aug-20 19:57N 21°21' W 089°41'0 0.0
2019-Aug-20 19:30N 21°21' W 089°41'0 0.0
2019-Aug-20 18:54N 21°21' W 089°41'0 0.0
2019-Aug-20 18:30N 21°21' W 089°41'0 0.0
2019-Aug-20 18:00N 21°21' W 089°41'0 0.0
2019-Aug-20 17:29N 21°21' W 089°41'0 0.0
2019-Aug-20 16:59N 21°21' W 089°41'0 0.0
2019-Aug-20 16:29N 21°21' W 089°41'0 0.0
2019-Aug-20 15:59N 21°21' W 089°41'0 0.0
2019-Aug-20 15:28N 21°21' W 089°41'0 0.0
2019-Aug-20 14:58N 21°21' W 089°41'0 0.0
2019-Aug-20 14:28N 21°21' W 089°41'0 0.0
2019-Aug-20 13:58N 21°21' W 089°41'0 0.1
2019-Aug-20 13:30N 21°20' W 089°41'4 8.9
2019-Aug-20 13:01N 21°25' W 089°41'510.4
2019-Aug-20 12:31N 21°30' W 089°39'612.1
2019-Aug-20 12:01N 21°35' W 089°35'816.4
2019-Aug-20 11:31N 21°41' W 089°30'816.8
2019-Aug-20 11:00N 21°44' W 089°22'817.2
2019-Aug-20 10:31N 21°46' W 089°13'1117.2
2019-Aug-20 09:53N 21°49' W 089°02'917.2
2019-Aug-20 09:22N 21°51' W 088°52'617.1
2019-Aug-20 09:01N 21°52' W 088°46'816.9
2019-Aug-20 08:30N 21°54' W 088°37'1116.8
2019-Aug-20 07:50N 21°57' W 088°25'616.9
2019-Aug-20 07:29N 21°58' W 088°19'2315.8
2019-Aug-20 06:00N 21°54' W 087°54'9113.3 070 / 151014.910.8 27.025.628.0
2019-Aug-19 23:11N 20°44' W 086°52'721.9
2019-Aug-19 22:52N 20°38' W 086°57'718.9
2019-Aug-19 22:30N 20°33' W 087°00'4 7.9
2019-Aug-19 21:59N 20°29' W 086°59'0 0.0
2019-Aug-19 21:29N 20°29' W 086°59'0 0.0
2019-Aug-19 20:59N 20°29' W 086°59'0 0.0
2019-Aug-19 20:29N 20°29' W 086°59'0 0.0
2019-Aug-19 19:58N 20°29' W 086°59'0 0.0
2019-Aug-19 19:28N 20°29' W 086°59'0 0.0
2019-Aug-19 18:58N 20°29' W 086°59'0 0.0
2019-Aug-19 18:25N 20°29' W 086°59'0 0.0
2019-Aug-19 18:01N 20°29' W 086°59'0 0.0
2019-Aug-19 17:30N 20°29' W 086°59'0 0.0
2019-Aug-19 17:00N 20°29' W 086°59'0 0.0
2019-Aug-19 16:30N 20°29' W 086°59'0 0.0
2019-Aug-19 16:00N 20°29' W 086°59'0 0.0
2019-Aug-19 15:29N 20°29' W 086°59'0 0.0
2019-Aug-19 14:59N 20°29' W 086°59'0 0.0
2019-Aug-19 14:29N 20°29' W 086°59'0 0.0
2019-Aug-19 13:59N 20°29' W 086°59'0 0.0
2019-Aug-19 13:29N 20°29' W 086°59'0 0.0
2019-Aug-19 12:58N 20°29' W 086°59'0 0.0
2019-Aug-19 12:30N 20°29' W 086°59'1 2.7
2019-Aug-19 12:00N 20°30' W 086°60'4 8.5
2019-Aug-19 11:30N 20°34' W 086°59'612.7
2019-Aug-19 11:00N 20°39' W 086°55'612.6
2019-Aug-19 10:30N 20°45' W 086°52'21014.4
2019-Aug-18 20:00N 24°06' W 087°54'7919.7 110 / 221015.8 5.4 30.022.830.0
2019-Aug-18 16:00N 25°24' W 088°06'11318.8 180 / 111017.4 5.4
2019-Aug-18 10:00N 27°12' W 088°42'2512.3 190 / 171014.810.8 28.020.529.0
2019-Aug-18 08:00N 27°36' W 088°48'13214.9 230 / 211014.210.8 29.024.831.0
2019-Aug-17 23:08N 29°36' W 089°51'315.0
2019-Aug-17 22:56N 29°37' W 089°54'812.9
2019-Aug-17 22:18N 29°44' W 089°60'412.7
2019-Aug-17 22:00N 29°47' W 090°01'612.7
2019-Aug-17 21:30N 29°53' W 089°57'3 5.5
2019-Aug-17 21:00N 29°55' W 089°56'613.1
2019-Aug-17 20:30N 29°57' W 090°04'1 1.6
2019-Aug-17 19:58N 29°56' W 090°04'0 0.0
2019-Aug-17 19:28N 29°56' W 090°04'0 0.0
2019-Aug-17 18:57N 29°56' W 090°04'0 0.0
2019-Aug-17 18:30N 29°56' W 090°04'0 0.0
2019-Aug-17 17:27N 29°56' W 090°04'0 0.0
2019-Aug-17 16:59N 29°56' W 090°04'0 0.0
2019-Aug-17 16:29N 29°56' W 090°04'0 0.0
2019-Aug-17 15:59N 29°56' W 090°04'0 0.0
2019-Aug-17 15:26N 29°56' W 090°04'0 0.0
2019-Aug-17 14:59N 29°56' W 090°04'0 0.0
2019-Aug-17 14:28N 29°56' W 090°04'0 0.0
2019-Aug-17 13:58N 29°56' W 090°04'0 0.0
2019-Aug-17 13:28N 29°56' W 090°04'0 0.0
2019-Aug-17 12:58N 29°56' W 090°04'0 0.0
2019-Aug-17 12:28N 29°56' W 090°04'0 0.0
2019-Aug-17 12:00N 29°56' W 090°04'0 0.0
2019-Aug-17 11:30N 29°56' W 090°04'0 0.0
2019-Aug-17 11:00N 29°56' W 090°04'0 0.0
2019-Aug-17 10:30N 29°56' W 090°04'1 1.4
2019-Aug-17 10:00N 29°57' W 090°04'4 8.1
2019-Aug-17 09:30N 29°56' W 089°59'4 8.5
2019-Aug-17 09:00N 29°54' W 089°55'4 6.9
2019-Aug-17 08:30N 29°53' W 089°58'611.7
2019-Aug-17 08:00N 29°47' W 090°01'511.0
2019-Aug-17 07:30N 29°42' W 089°59'511.1
2019-Aug-17 07:00N 29°38' W 089°55'612.7
2019-Aug-17 06:30N 29°35' W 089°48'17514.0
2019-Aug-16 18:00N 26°42' W 089°18'4221.0 240 / 181015.0 5.4 29.023.230.0
2019-Aug-16 16:00N 26°00' W 089°18'9616.0 230 / 101016.110.8 30.0 31.0
2019-Aug-16 10:00N 24°24' W 089°18'1313.2 200 / 151014.010.8 29.024.829.0
2019-Aug-16 09:00N 24°12' W 089°12'4221.0 170 / 151013.910.8 29.024.829.0
2019-Aug-16 07:00N 23°30' W 089°12'3717.1 160 / 101014.510.8 29.024.831.0
2019-Aug-16 04:48N 22°53' W 089°16'617.2
2019-Aug-16 04:26N 22°47' W 089°16'717.0
2019-Aug-16 04:00N 22°39' W 089°16'1116.8
2019-Aug-16 03:22N 22°29' W 089°16'3116.2
2019-Aug-16 01:28N 21°59' W 089°27'916.2
2019-Aug-16 00:53N 21°51' W 089°31'616.1
2019-Aug-16 00:31N 21°45' W 089°33'816.3
2019-Aug-16 00:00N 21°38' W 089°37'816.1
2019-Aug-15 23:31N 21°30' W 089°41'612.3
2019-Aug-15 23:00N 21°24' W 089°41'4 7.6
2019-Aug-15 22:30N 21°21' W 089°41'0 0.0
2019-Aug-15 22:00N 21°21' W 089°41'0 0.0
2019-Aug-15 21:30N 21°21' W 089°41'0 0.0
2019-Aug-15 20:57N 21°21' W 089°41'0 0.0
2019-Aug-15 20:29N 21°21' W 089°41'0 0.0
2019-Aug-15 18:50N 21°21' W 089°41'0 0.0
2019-Aug-15 18:28N 21°21' W 089°41'0 0.0
2019-Aug-15 17:55N 21°21' W 089°41'0 0.0
2019-Aug-15 17:28N 21°21' W 089°41'0 0.0
2019-Aug-15 16:58N 21°21' W 089°41'0 0.0
2019-Aug-15 16:28N 21°21' W 089°41'0 0.0
2019-Aug-15 16:00N 21°21' W 089°41'0 0.0
2019-Aug-15 15:30N 21°21' W 089°41'0 0.0
2019-Aug-15 15:00N 21°21' W 089°41'0 0.0
2019-Aug-15 14:30N 21°21' W 089°41'0 0.0
2019-Aug-15 14:00N 21°21' W 089°41'0 0.1
2019-Aug-15 13:30N 21°20' W 089°41'4 9.0
2019-Aug-15 13:01N 21°25' W 089°41'611.3
2019-Aug-15 12:30N 21°30' W 089°39'713.9
2019-Aug-15 12:01N 21°36' W 089°35'816.2
2019-Aug-15 11:31N 21°42' W 089°29'917.1
2019-Aug-15 11:01N 21°44' W 089°20'917.2
2019-Aug-15 10:31N 21°46' W 089°11'917.2
2019-Aug-15 10:00N 21°48' W 089°02'917.2
2019-Aug-15 09:30N 21°50' W 088°53'917.2
2019-Aug-15 09:00N 21°53' W 088°44'6375.9
2019-Aug-15 09:00N 21°48' W 088°48'1625.5 170 / 131013.910.8 29.023.229.0
2019-Aug-15 08:21N 21°55' W 088°32'1418.0
2019-Aug-15 07:35N 21°59' W 088°18'2214.2
2019-Aug-15 06:00N 21°54' W 087°54'9113.8 130 / 121015.110.8 29.024.830.0
2019-Aug-14 23:25N 20°45' W 086°51'921.7
2019-Aug-14 22:59N 20°37' W 086°57'816.9
2019-Aug-14 22:30N 20°30' W 086°60'2 3.1
2019-Aug-14 21:56N 20°29' W 086°59'0 0.0
2019-Aug-14 21:29N 20°29' W 086°59'0 0.0
2019-Aug-14 20:56N 20°29' W 086°59'0 0.0
2019-Aug-14 20:28N 20°29' W 086°59'  
Track history (hours):
 
Tides and Currents Weather Stations Pressure Air Temp Water Temp Dewpoint Dewpoint Depression Visibility Wind Speed Wind Dir Waves Ship Positions

Carnival Valor

Last reported at 2019-Aug-24 20:28 UTC. Time now 2019-Aug-24 20:44 UTC.
Position N 20°29' W 086°59'.

Type: Ship. MMSI: 354298000.

Date/timePositionNaut miles runAvg speedWind from/ knotsBaromVisibWave heightAir tempDewpointWater temp
2019-Aug-24 20:28N 20°29' W 086°59'0 0.0
2019-Aug-24 19:55N 20°29' W 086°59'0 0.0
2019-Aug-24 19:28N 20°29' W 086°59'0 0.0
2019-Aug-24 18:58N 20°29' W 086°59'0 0.0
2019-Aug-24 18:30N 20°29' W 086°59'0 0.0
2019-Aug-24 18:00N 20°29' W 086°59'0 0.0
2019-Aug-24 17:30N 20°29' W 086°59'0 0.0
2019-Aug-24 17:00N 20°29' W 086°59'0 0.0
2019-Aug-24 16:29N 20°29' W 086°59'0 0.0
2019-Aug-24 15:59N 20°29' W 086°59'0 0.0
2019-Aug-24 15:29N 20°29' W 086°59'0 0.0
2019-Aug-24 14:59N 20°29' W 086°59'0 0.0
2019-Aug-24 14:29N 20°29' W 086°59'0 0.0
2019-Aug-24 13:58N 20°29' W 086°59'0 0.0
2019-Aug-24 13:28N 20°29' W 086°59'0 0.0
2019-Aug-24 12:58N 20°29' W 086°59'0 0.0
2019-Aug-24 12:28N 20°29' W 086°59'0 0.0
2019-Aug-24 12:01N 20°29' W 086°59'0 0.2
2019-Aug-24 11:30N 20°29' W 086°59'2 4.8
2019-Aug-24 11:00N 20°31' W 087°00'510.2
2019-Aug-24 10:30N 20°36' W 086°58'612.0
2019-Aug-24 10:00N 20°41' W 086°55'5213.0
2019-Aug-24 06:00N 21°30' W 086°36'27817.4 100 / 51014.210.8 28.023.730.0
2019-Aug-23 14:00N 25°54' W 088°12'23916.2 150 / 71015.910.8 29.0 31.0
2019-Aug-22 23:12N 29°36' W 089°52'311.3
2019-Aug-22 22:58N 29°37' W 089°55'510.6
2019-Aug-22 22:27N 29°42' W 089°58'612.8
2019-Aug-22 22:00N 29°47' W 090°01'713.3
2019-Aug-22 21:31N 29°53' W 089°58'3 6.1
2019-Aug-22 20:59N 29°55' W 089°56'611.9
2019-Aug-22 20:30N 29°57' W 090°02'2 3.1
2019-Aug-22 19:53N 29°56' W 090°04'0 0.0
2019-Aug-22 19:29N 29°56' W 090°04'0 0.0
2019-Aug-22 18:59N 29°56' W 090°04'0 0.0
2019-Aug-22 18:25N 29°56' W 090°04'0 0.0
2019-Aug-22 17:58N 29°56' W 090°04'0 0.0
2019-Aug-22 17:25N 29°56' W 090°04'0 0.0
2019-Aug-22 16:58N 29°56' W 090°04'0 0.0
2019-Aug-22 16:28N 29°56' W 090°04'0 0.0
2019-Aug-22 16:00N 29°56' W 090°04'0 0.0
2019-Aug-22 15:30N 29°56' W 090°04'0 0.0
2019-Aug-22 14:57N 29°56' W 090°04'0 0.0
2019-Aug-22 14:27N 29°56' W 090°04'0 0.0
2019-Aug-22 13:59N 29°56' W 090°04'0 0.0
2019-Aug-22 13:29N 29°56' W 090°04'0 0.0
2019-Aug-22 12:56N 29°56' W 090°04'0 0.0
2019-Aug-22 12:29N 29°56' W 090°04'0 0.0
2019-Aug-22 11:59N 29°56' W 090°04'0 0.0
2019-Aug-22 11:28N 29°56' W 090°04'0 0.0
2019-Aug-22 10:58N 29°56' W 090°04'0 0.0
2019-Aug-22 10:28N 29°56' W 090°04'0 0.0
2019-Aug-22 09:55N 29°56' W 090°04'1 2.8
2019-Aug-22 09:30N 29°57' W 090°03'5 9.9
2019-Aug-22 09:00N 29°55' W 089°58'4 8.9
2019-Aug-22 08:30N 29°52' W 089°55'5 9.5
2019-Aug-22 08:00N 29°50' W 089°59'611.4
2019-Aug-22 07:30N 29°44' W 090°01'713.2
2019-Aug-22 07:00N 29°39' W 089°57'711.8
2019-Aug-22 06:26N 29°36' W 089°50'22414.5
2019-Aug-21 15:00N 25°54' W 089°18'5418.0 110 / 151016.610.8 30.0 31.0
2019-Aug-21 12:00N 25°00' W 089°18'9018.0 140 / 151015.410.8 29.023.229.0
2019-Aug-21 07:00N 23°30' W 089°12'9515.4 130 / 181014.710.8 28.025.231.0
2019-Aug-21 00:50N 21°56' W 089°28'615.7
2019-Aug-21 00:25N 21°50' W 089°31'715.8
2019-Aug-21 00:00N 21°44' W 089°34'816.0
2019-Aug-20 23:30N 21°37' W 089°37'816.1
2019-Aug-20 23:01N 21°30' W 089°41'611.9
2019-Aug-20 22:30N 21°24' W 089°41'3 6.0
2019-Aug-20 21:58N 21°21' W 089°41'0 0.0
2019-Aug-20 21:28N 21°21' W 089°41'0 0.0
2019-Aug-20 20:58N 21°21' W 089°41'0 0.0
2019-Aug-20 20:19N 21°21' W 089°41'0 0.0
2019-Aug-20 19:57N 21°21' W 089°41'0 0.0
2019-Aug-20 19:30N 21°21' W 089°41'0 0.0
2019-Aug-20 18:54N 21°21' W 089°41'0 0.0
2019-Aug-20 18:30N 21°21' W 089°41'0 0.0
2019-Aug-20 18:00N 21°21' W 089°41'0 0.0
2019-Aug-20 17:29N 21°21' W 089°41'0 0.0
2019-Aug-20 16:59N 21°21' W 089°41'0 0.0
2019-Aug-20 16:29N 21°21' W 089°41'0 0.0
2019-Aug-20 15:59N 21°21' W 089°41'0 0.0
2019-Aug-20 15:28N 21°21' W 089°41'0 0.0
2019-Aug-20 14:58N 21°21' W 089°41'0 0.0
2019-Aug-20 14:28N 21°21' W 089°41'0 0.0
2019-Aug-20 13:58N 21°21' W 089°41'0 0.1
2019-Aug-20 13:30N 21°20' W 089°41'4 8.9
2019-Aug-20 13:01N 21°25' W 089°41'510.4
2019-Aug-20 12:31N 21°30' W 089°39'612.1
2019-Aug-20 12:01N 21°35' W 089°35'816.4
2019-Aug-20 11:31N 21°41' W 089°30'816.8
2019-Aug-20 11:00N 21°44' W 089°22'817.2
2019-Aug-20 10:31N 21°46' W 089°13'1117.2
2019-Aug-20 09:53N 21°49' W 089°02'917.2
2019-Aug-20 09:22N 21°51' W 088°52'617.1
2019-Aug-20 09:01N 21°52' W 088°46'816.9
2019-Aug-20 08:30N 21°54' W 088°37'1116.8
2019-Aug-20 07:50N 21°57' W 088°25'616.9
2019-Aug-20 07:29N 21°58' W 088°19'2315.8
2019-Aug-20 06:00N 21°54' W 087°54'9113.3 070 / 151014.910.8 27.025.628.0
2019-Aug-19 23:11N 20°44' W 086°52'721.9
2019-Aug-19 22:52N 20°38' W 086°57'718.9
2019-Aug-19 22:30N 20°33' W 087°00'4 7.9
2019-Aug-19 21:59N 20°29' W 086°59'0 0.0
2019-Aug-19 21:29N 20°29' W 086°59'0 0.0
2019-Aug-19 20:59N 20°29' W 086°59'0 0.0
2019-Aug-19 20:29N 20°29' W 086°59'0 0.0
2019-Aug-19 19:58N 20°29' W 086°59'0 0.0
2019-Aug-19 19:28N 20°29' W 086°59'0 0.0
2019-Aug-19 18:58N 20°29' W 086°59'0 0.0
2019-Aug-19 18:25N 20°29' W 086°59'0 0.0
2019-Aug-19 18:01N 20°29' W 086°59'0 0.0
2019-Aug-19 17:30N 20°29' W 086°59'0 0.0
2019-Aug-19 17:00N 20°29' W 086°59'0 0.0
2019-Aug-19 16:30N 20°29' W 086°59'0 0.0
2019-Aug-19 16:00N 20°29' W 086°59'0 0.0
2019-Aug-19 15:29N 20°29' W 086°59'0 0.0
2019-Aug-19 14:59N 20°29' W 086°59'0 0.0
2019-Aug-19 14:29N 20°29' W 086°59'0 0.0
2019-Aug-19 13:59N 20°29' W 086°59'0 0.0
2019-Aug-19 13:29N 20°29' W 086°59'0 0.0
2019-Aug-19 12:58N 20°29' W 086°59'0 0.0
2019-Aug-19 12:30N 20°29' W 086°59'1 2.7
2019-Aug-19 12:00N 20°30' W 086°60'4 8.5
2019-Aug-19 11:30N 20°34' W 086°59'612.7
2019-Aug-19 11:00N 20°39' W 086°55'612.6
2019-Aug-19 10:30N 20°45' W 086°52'21014.4
2019-Aug-18 20:00N 24°06' W 087°54'7919.7 110 / 221015.8 5.4 30.022.830.0
2019-Aug-18 16:00N 25°24' W 088°06'11318.8 180 / 111017.4 5.4
2019-Aug-18 10:00N 27°12' W 088°42'2512.3 190 / 171014.810.8 28.020.529.0
2019-Aug-18 08:00N 27°36' W 088°48'13214.9 230 / 211014.210.8 29.024.831.0
2019-Aug-17 23:08N 29°36' W 089°51'315.0
2019-Aug-17 22:56N 29°37' W 089°54'812.9
2019-Aug-17 22:18N 29°44' W 089°60'412.7
2019-Aug-17 22:00N 29°47' W 090°01'612.7
2019-Aug-17 21:30N 29°53' W 089°57'3 5.5
2019-Aug-17 21:00N 29°55' W 089°56'613.1
2019-Aug-17 20:30N 29°57' W 090°04'1 1.6
2019-Aug-17 19:58N 29°56' W 090°04'0 0.0
2019-Aug-17 19:28N 29°56' W 090°04'0 0.0
2019-Aug-17 18:57N 29°56' W 090°04'0 0.0
2019-Aug-17 18:30N 29°56' W 090°04'0 0.0
2019-Aug-17 17:27N 29°56' W 090°04'0 0.0
2019-Aug-17 16:59N 29°56' W 090°04'0 0.0
2019-Aug-17 16:29N 29°56' W 090°04'0 0.0
2019-Aug-17 15:59N 29°56' W 090°04'0 0.0
2019-Aug-17 15:26N 29°56' W 090°04'0 0.0
2019-Aug-17 14:59N 29°56' W 090°04'0 0.0
2019-Aug-17 14:28N 29°56' W 090°04'0 0.0
2019-Aug-17 13:58N 29°56' W 090°04'0 0.0
2019-Aug-17 13:28N 29°56' W 090°04'0 0.0
2019-Aug-17 12:58N 29°56' W 090°04'0 0.0
2019-Aug-17 12:28N 29°56' W 090°04'0 0.0
2019-Aug-17 12:00N 29°56' W 090°04'0 0.0
2019-Aug-17 11:30N 29°56' W 090°04'0 0.0
2019-Aug-17 11:00N 29°56' W 090°04'0 0.0
2019-Aug-17 10:30N 29°56' W 090°04'1 1.4
2019-Aug-17 10:00N 29°57' W 090°04'4 8.1
2019-Aug-17 09:30N 29°56' W 089°59'4 8.5
2019-Aug-17 09:00N 29°54' W 089°55'4 6.9
2019-Aug-17 08:30N 29°53' W 089°58'611.7
2019-Aug-17 08:00N 29°47' W 090°01'511.0
2019-Aug-17 07:30N 29°42' W 089°59'511.1
2019-Aug-17 07:00N 29°38' W 089°55'612.7
2019-Aug-17 06:30N 29°35' W 089°48'17514.0
2019-Aug-16 18:00N 26°42' W 089°18'4221.0 240 / 181015.0 5.4 29.023.230.0
2019-Aug-16 16:00N 26°00' W 089°18'9616.0 230 / 101016.110.8 30.0 31.0
2019-Aug-16 10:00N 24°24' W 089°18'1313.2 200 / 151014.010.8 29.024.829.0
2019-Aug-16 09:00N 24°12' W 089°12'4221.0 170 / 151013.910.8 29.024.829.0
2019-Aug-16 07:00N 23°30' W 089°12'3717.1 160 / 101014.510.8 29.024.831.0
2019-Aug-16 04:48N 22°53' W 089°16'617.2
2019-Aug-16 04:26N 22°47' W 089°16'717.0
2019-Aug-16 04:00N 22°39' W 089°16'1116.8
2019-Aug-16 03:22N 22°29' W 089°16'3116.2
2019-Aug-16 01:28N 21°59' W 089°27'916.2
2019-Aug-16 00:53N 21°51' W 089°31'616.1
2019-Aug-16 00:31N 21°45' W 089°33'816.3
2019-Aug-16 00:00N 21°38' W 089°37'816.1
2019-Aug-15 23:31N 21°30' W 089°41'612.3
2019-Aug-15 23:00N 21°24' W 089°41'4 7.6
2019-Aug-15 22:30N 21°21' W 089°41'0 0.0
2019-Aug-15 22:00N 21°21' W 089°41'0 0.0
2019-Aug-15 21:30N 21°21' W 089°41'0 0.0
2019-Aug-15 20:57N 21°21' W 089°41'0 0.0
2019-Aug-15 20:29N 21°21' W 089°41'0 0.0
2019-Aug-15 18:50N 21°21' W 089°41'0 0.0
2019-Aug-15 18:28N 21°21' W 089°41'0 0.0
2019-Aug-15 17:55N 21°21' W 089°41'0 0.0
2019-Aug-15 17:28N 21°21' W 089°41'0 0.0
2019-Aug-15 16:58N 21°21' W 089°41'0 0.0
2019-Aug-15 16:28N 21°21' W 089°41'0 0.0
2019-Aug-15 16:00N 21°21' W 089°41'0 0.0
2019-Aug-15 15:30N 21°21' W 089°41'0 0.0
2019-Aug-15 15:00N 21°21' W 089°41'0 0.0
2019-Aug-15 14:30N 21°21' W 089°41'0 0.0
2019-Aug-15 14:00N 21°21' W 089°41'0 0.1
2019-Aug-15 13:30N 21°20' W 089°41'4 9.0
2019-Aug-15 13:01N 21°25' W 089°41'611.3
2019-Aug-15 12:30N 21°30' W 089°39'713.9
2019-Aug-15 12:01N 21°36' W 089°35'816.2
2019-Aug-15 11:31N 21°42' W 089°29'917.1
2019-Aug-15 11:01N 21°44' W 089°20'917.2
2019-Aug-15 10:31N 21°46' W 089°11'917.2
2019-Aug-15 10:00N 21°48' W 089°02'917.2
2019-Aug-15 09:30N 21°50' W 088°53'917.2
2019-Aug-15 09:00N 21°53' W 088°44'6375.9
2019-Aug-15 09:00N 21°48' W 088°48'1625.5 170 / 131013.910.8 29.023.229.0
2019-Aug-15 08:21N 21°55' W 088°32'1418.0
2019-Aug-15 07:35N 21°59' W 088°18'2214.2
2019-Aug-15 06:00N 21°54' W 087°54'9113.8 130 / 121015.110.8 29.024.830.0
2019-Aug-14 23:25N 20°45' W 086°51'921.7
2019-Aug-14 22:59N 20°37' W 086°57'816.9
2019-Aug-14 22:30N 20°30' W 086°60'2 3.1
2019-Aug-14 21:56N 20°29' W 086°59'0 0.0
2019-Aug-14 21:29N 20°29' W 086°59'0 0.0
2019-Aug-14 20:56N 20°29' W 086°59'0 0.0
2019-Aug-14 20:28N 20°29' W 086°59'  

Dump ship's entire track history